createdAt,value
2022-11-06T00:00:25.683Z,5.137329
2022-11-06T00:01:35.535Z,5.117188
2022-11-06T00:02:44.437Z,5.076904
2022-11-06T00:03:52.073Z,5.046692
2022-11-06T00:05:01.867Z,4.986267
2022-11-06T00:06:09.699Z,4.885559
2022-11-06T00:07:19.591Z,4.815063
2022-11-06T00:08:29.292Z,4.734497
2022-11-06T00:09:38.040Z,4.754639
2022-11-06T00:10:47.711Z,4.784851
2022-11-06T00:11:56.438Z,4.835205
2022-11-06T00:13:04.111Z,4.915771
2022-11-06T00:14:13.920Z,5.046692
2022-11-06T00:15:22.653Z,5.117188
2022-11-06T00:16:31.424Z,5.197754
2022-11-06T00:17:41.244Z,5.27832
2022-11-06T00:18:50.299Z,5.328674
2022-11-06T00:20:00.268Z,5.348816
2022-11-06T00:21:09.984Z,5.379028
2022-11-06T00:22:18.675Z,5.348816
2022-11-06T00:23:28.494Z,5.328674
2022-11-06T00:24:36.260Z,5.298462
2022-11-06T00:25:45.087Z,5.27832
2022-11-06T00:26:54.896Z,5.248108
2022-11-06T00:28:02.551Z,5.207825
2022-11-06T00:29:12.314Z,5.1474
2022-11-06T00:30:21.076Z,5.117188
2022-11-06T00:31:28.793Z,5.097046
2022-11-06T00:32:38.540Z,5.076904
2022-11-06T00:33:46.359Z,5.046692
2022-11-06T00:34:55.998Z,5.036621
2022-11-06T00:36:05.883Z,5.036621
2022-11-06T00:37:13.627Z,4.996338
2022-11-06T00:38:23.402Z,4.986267
2022-11-06T00:39:32.105Z,4.966125
2022-11-06T00:40:39.918Z,4.925842
2022-11-06T00:41:49.746Z,4.915771
2022-11-06T00:42:59.617Z,4.885559
2022-11-06T00:44:09.297Z,4.855347
2022-11-06T00:45:19.023Z,4.815063
2022-11-06T00:46:26.753Z,4.804993
2022-11-06T00:47:36.597Z,4.804993
2022-11-06T00:48:45.199Z,4.77478
2022-11-06T00:49:52.925Z,4.734497
2022-11-06T00:51:01.672Z,4.664001
2022-11-06T00:52:11.390Z,4.674072
2022-11-06T00:53:20.182Z,4.734497
2022-11-06T00:54:29.913Z,4.734497
2022-11-06T00:55:38.706Z,4.744568
2022-11-06T00:56:46.503Z,4.734497
2022-11-06T00:57:56.559Z,4.684143
2022-11-06T00:59:05.323Z,4.684143
2022-11-06T01:00:14.058Z,4.674072
2022-11-06T01:01:22.968Z,4.633789
2022-11-06T01:02:31.687Z,4.664001
2022-11-06T01:03:41.393Z,4.664001
2022-11-06T01:04:51.028Z,4.664001
2022-11-06T01:05:58.767Z,4.633789
2022-11-06T01:07:08.510Z,4.674072
2022-11-06T01:08:16.344Z,4.674072
2022-11-06T01:09:24.998Z,4.684143
2022-11-06T01:10:34.759Z,4.704285
2022-11-06T01:12:10.882Z,4.714355
2022-11-06T01:12:54.373Z,4.714355
2022-11-06T01:14:03.191Z,4.714355
2022-11-06T01:15:11.016Z,4.714355
2022-11-06T01:16:19.998Z,4.714355
2022-11-06T01:17:27.722Z,4.744568
2022-11-06T01:18:37.411Z,4.744568
2022-11-06T01:19:47.165Z,4.754639
2022-11-06T01:20:57.018Z,4.744568
2022-11-06T01:22:06.691Z,4.744568
2022-11-06T01:23:16.578Z,4.734497
2022-11-06T01:24:24.413Z,4.734497
2022-11-06T01:25:32.171Z,4.714355
2022-11-06T01:26:49.189Z,4.684143
2022-11-06T01:27:50.674Z,4.664001
2022-11-06T01:29:00.487Z,4.603577
2022-11-06T01:30:08.305Z,4.583435
2022-11-06T01:31:18.026Z,4.553223
2022-11-06T01:32:25.820Z,4.533081
2022-11-06T01:33:33.592Z,4.502869
2022-11-06T01:34:43.424Z,4.502869
2022-11-06T01:35:53.244Z,4.492798
2022-11-06T01:37:02.890Z,4.492798
2022-11-06T01:38:13.782Z,4.452515
2022-11-06T01:39:22.370Z,4.442444
2022-11-06T01:40:32.173Z,4.442444
2022-11-06T01:41:40.983Z,4.452515
2022-11-06T01:42:50.375Z,4.422302
2022-11-06T01:44:00.085Z,4.442444
2022-11-06T01:45:08.774Z,4.452515
2022-11-06T01:46:17.602Z,4.502869
2022-11-06T01:47:27.777Z,4.533081
2022-11-06T01:48:35.710Z,4.583435
2022-11-06T01:49:45.427Z,4.583435
2022-11-06T01:50:54.221Z,4.593506
2022-11-06T01:52:01.962Z,4.623718
2022-11-06T01:53:11.670Z,4.664001
2022-11-06T01:54:20.343Z,4.684143
2022-11-06T01:55:29.036Z,4.714355
2022-11-06T01:56:38.746Z,4.734497
2022-11-06T01:57:46.490Z,4.714355
2022-11-06T01:58:56.206Z,4.734497
2022-11-06T02:00:04.885Z,4.734497
2022-11-06T02:01:11.595Z,4.734497
2022-11-06T02:02:21.450Z,4.734497
2022-11-06T02:03:29.210Z,4.734497
2022-11-06T02:04:38.020Z,4.744568
2022-11-06T02:05:47.816Z,4.734497
2022-11-06T02:06:55.538Z,4.734497
2022-11-06T02:08:05.270Z,4.714355
2022-11-06T02:09:15.203Z,4.684143
2022-11-06T02:10:22.904Z,4.664001
2022-11-06T02:11:32.633Z,4.633789
2022-11-06T02:12:40.361Z,4.603577
2022-11-06T02:13:49.049Z,4.563293
2022-11-06T02:14:58.841Z,4.52301
2022-11-06T02:16:06.526Z,4.52301
2022-11-06T02:17:16.307Z,4.52301
2022-11-06T02:18:25.003Z,4.502869
2022-11-06T02:19:32.747Z,4.482727
2022-11-06T02:20:42.531Z,4.442444
2022-11-06T02:21:50.305Z,4.412231
2022-11-06T02:22:59.024Z,4.412231
2022-11-06T02:24:08.753Z,4.402161
2022-11-06T02:25:18.461Z,4.412231
2022-11-06T02:26:27.314Z,4.382019
2022-11-06T02:27:36.025Z,4.341736
2022-11-06T02:28:43.771Z,4.281311
2022-11-06T02:29:53.497Z,4.230957
2022-11-06T02:31:02.211Z,4.160461
2022-11-06T02:32:10.954Z,4.14032
2022-11-06T02:33:20.716Z,4.059753
2022-11-06T02:34:28.439Z,4.059753
2022-11-06T02:35:38.146Z,4.059753
2022-11-06T02:36:46.908Z,4.079895
2022-11-06T02:37:55.637Z,4.01947
2022-11-06T02:39:05.357Z,3.938904
2022-11-06T02:40:13.193Z,3.838196
2022-11-06T02:41:21.764Z,3.777771
2022-11-06T02:42:31.468Z,3.656921
2022-11-06T02:43:41.322Z,3.656921
2022-11-06T02:44:51.083Z,3.677063
2022-11-06T02:45:59.884Z,3.727417
2022-11-06T02:47:07.511Z,3.737488
2022-11-06T02:48:15.609Z,3.687134
2022-11-06T02:49:24.945Z,3.626709
2022-11-06T02:50:32.671Z,3.546143
2022-11-06T02:51:42.411Z,3.445435
2022-11-06T02:52:51.169Z,3.395081
2022-11-06T02:53:59.885Z,3.344727
2022-11-06T02:55:09.654Z,3.294373
2022-11-06T02:56:17.363Z,3.254089
2022-11-06T02:57:26.056Z,3.183594
2022-11-06T02:58:38.776Z,3.082886
2022-11-06T02:59:46.556Z,3.052673
2022-11-06T03:00:56.280Z,3.002319
2022-11-06T03:02:05.144Z,2.931824
2022-11-06T03:03:14.727Z,2.851257
2022-11-06T03:04:23.468Z,2.770691
2022-11-06T03:05:31.157Z,2.710266
2022-11-06T03:06:39.965Z,2.690125
2022-11-06T03:07:49.676Z,2.740479
2022-11-06T03:08:57.447Z,2.851257
2022-11-06T03:10:07.207Z,2.891541
2022-11-06T03:11:15.900Z,2.951965
2022-11-06T03:12:24.177Z,2.982178
2022-11-06T03:13:33.885Z,3.072815
2022-11-06T03:14:41.798Z,3.103027
2022-11-06T03:15:50.482Z,3.13324
2022-11-06T03:17:00.232Z,3.113098
2022-11-06T03:18:08.977Z,3.103027
2022-11-06T03:19:18.736Z,3.103027
2022-11-06T03:20:27.518Z,3.13324
2022-11-06T03:21:35.251Z,3.13324
2022-11-06T03:22:44.978Z,3.103027
2022-11-06T03:23:52.710Z,3.082886
2022-11-06T03:25:01.412Z,3.103027
2022-11-06T03:26:11.152Z,3.13324
2022-11-06T03:27:18.860Z,3.183594
2022-11-06T03:28:28.591Z,3.183594
2022-11-06T03:29:37.391Z,3.143311
2022-11-06T03:30:45.106Z,3.183594
2022-11-06T03:31:54.881Z,3.183594
2022-11-06T03:33:02.610Z,3.213806
2022-11-06T03:34:11.289Z,3.223877
2022-11-06T03:35:21.007Z,3.193665
2022-11-06T03:36:28.731Z,3.163452
2022-11-06T03:37:38.421Z,3.113098
2022-11-06T03:38:47.170Z,3.042603
2022-11-06T03:39:54.894Z,2.982178
2022-11-06T03:41:04.775Z,2.931824
2022-11-06T03:42:12.501Z,2.871399
2022-11-06T03:43:21.217Z,2.851257
2022-11-06T03:44:30.949Z,2.800903
2022-11-06T03:45:40.651Z,2.750549
2022-11-06T03:46:50.383Z,2.800903
2022-11-06T03:47:59.088Z,2.901611
2022-11-06T03:49:06.974Z,2.951965
2022-11-06T03:50:16.697Z,3.01239
2022-11-06T03:51:24.426Z,3.042603
2022-11-06T03:52:33.176Z,3.072815
2022-11-06T03:53:43.888Z,3.042603
2022-11-06T03:54:51.629Z,3.042603
2022-11-06T03:56:01.367Z,3.052673
2022-11-06T03:57:11.220Z,3.042603
2022-11-06T03:58:19.049Z,3.042603
2022-11-06T03:59:27.769Z,2.972107
2022-11-06T04:00:36.729Z,2.871399
2022-11-06T04:01:45.500Z,2.800903
2022-11-06T04:02:55.168Z,2.740479
2022-11-06T04:04:02.839Z,2.649841
2022-11-06T04:05:12.553Z,2.569275
2022-11-06T04:06:21.268Z,2.488708
2022-11-06T04:07:29.961Z,2.428284
2022-11-06T04:08:40.080Z,2.357788
2022-11-06T04:09:48.901Z,2.327576
2022-11-06T04:10:57.587Z,2.277222
2022-11-06T04:12:07.316Z,2.236938
2022-11-06T04:13:16.084Z,2.216797
2022-11-06T04:14:25.785Z,2.176514
2022-11-06T04:15:34.620Z,2.247009
2022-11-06T04:16:42.324Z,2.317505
2022-11-06T04:17:52.030Z,2.388
2022-11-06T04:19:00.743Z,2.388
2022-11-06T04:20:09.477Z,2.388
2022-11-06T04:21:19.214Z,2.327576
2022-11-06T04:22:26.970Z,2.317505
2022-11-06T04:23:37.711Z,2.277222
2022-11-06T04:24:46.402Z,2.25708
2022-11-06T04:25:55.160Z,2.25708
2022-11-06T04:27:04.896Z,2.317505
2022-11-06T04:28:12.872Z,2.357788
2022-11-06T04:29:20.362Z,2.418213
2022-11-06T04:30:30.120Z,2.418213
2022-11-06T04:31:37.805Z,2.458496
2022-11-06T04:32:47.655Z,2.438354
2022-11-06T04:33:58.251Z,2.438354
2022-11-06T04:35:05.957Z,2.458496
2022-11-06T04:36:15.667Z,2.438354
2022-11-06T04:37:23.383Z,2.428284
2022-11-06T04:38:32.119Z,2.418213
2022-11-06T04:39:41.821Z,2.458496
2022-11-06T04:40:49.551Z,2.498779
2022-11-06T04:41:59.289Z,2.528992
2022-11-06T04:43:07.963Z,2.539062
2022-11-06T04:44:16.761Z,2.528992
2022-11-06T04:45:24.488Z,2.559204
2022-11-06T04:46:34.191Z,2.539062
2022-11-06T04:47:42.909Z,2.539062
2022-11-06T04:48:51.636Z,2.539062
2022-11-06T04:50:01.368Z,2.559204
2022-11-06T04:51:09.106Z,2.559204
2022-11-06T04:52:18.804Z,2.609558
2022-11-06T04:53:27.558Z,2.599487
2022-11-06T04:54:36.271Z,2.599487
2022-11-06T04:55:46.004Z,2.599487
2022-11-06T04:56:54.710Z,2.569275
2022-11-06T04:58:04.440Z,2.559204
2022-11-06T04:59:13.177Z,2.569275
2022-11-06T05:00:20.931Z,2.559204
2022-11-06T05:01:30.827Z,2.559204
2022-11-06T05:02:38.371Z,2.559204
2022-11-06T05:03:48.112Z,2.599487
2022-11-06T05:04:57.866Z,2.609558
2022-11-06T05:06:07.578Z,2.619629
2022-11-06T05:07:17.400Z,2.669983
2022-11-06T05:08:27.107Z,2.669983
2022-11-06T05:09:34.822Z,2.669983
2022-11-06T05:10:44.528Z,2.690125
2022-11-06T05:11:52.278Z,2.720337
2022-11-06T05:13:01.037Z,2.710266
2022-11-06T05:14:10.738Z,2.690125
2022-11-06T05:15:18.483Z,2.680054
2022-11-06T05:16:28.192Z,2.619629
2022-11-06T05:17:36.960Z,2.639771
2022-11-06T05:18:46.003Z,2.619629
2022-11-06T05:19:55.809Z,2.609558
2022-11-06T05:21:03.794Z,2.569275
2022-11-06T05:22:13.339Z,2.539062
2022-11-06T05:23:23.064Z,2.468567
2022-11-06T05:24:31.829Z,2.428284
2022-11-06T05:25:41.595Z,2.428284
2022-11-06T05:26:53.429Z,2.438354
2022-11-06T05:28:01.051Z,2.438354
2022-11-06T05:29:10.772Z,2.428284
2022-11-06T05:30:18.536Z,2.418213
2022-11-06T05:31:27.305Z,2.388
2022-11-06T05:32:37.054Z,2.357788
2022-11-06T05:33:45.813Z,2.327576
2022-11-06T05:34:55.547Z,2.317505
2022-11-06T05:36:05.279Z,2.317505
2022-11-06T05:37:12.989Z,2.247009
2022-11-06T05:38:22.776Z,2.247009
2022-11-06T05:39:30.484Z,2.236938
2022-11-06T05:40:40.484Z,2.236938
2022-11-06T05:41:50.257Z,2.247009
2022-11-06T05:42:58.029Z,2.247009
2022-11-06T05:44:07.763Z,2.247009
2022-11-06T05:45:16.502Z,2.25708
2022-11-06T05:46:46.733Z,2.277222
2022-11-06T05:47:35.006Z,2.277222
2022-11-06T05:48:42.724Z,2.277222
2022-11-06T05:49:51.409Z,2.277222
2022-11-06T05:51:01.164Z,2.277222
2022-11-06T05:52:09.892Z,2.277222
2022-11-06T05:53:19.836Z,2.277222
2022-11-06T05:54:29.445Z,2.287292
2022-11-06T05:55:37.222Z,2.307434
2022-11-06T05:56:46.925Z,2.37793
2022-11-06T05:57:54.703Z,2.388
2022-11-06T05:59:03.604Z,2.438354
2022-11-06T06:00:13.340Z,2.468567
2022-11-06T06:01:21.180Z,2.50885
2022-11-06T06:02:31.117Z,2.528992
2022-11-06T06:03:39.615Z,2.539062
2022-11-06T06:04:47.768Z,2.50885
2022-11-06T06:05:57.508Z,2.50885
2022-11-06T06:07:05.220Z,2.498779
2022-11-06T06:08:14.349Z,2.488708
2022-11-06T06:09:23.742Z,2.488708
2022-11-06T06:10:33.512Z,2.468567
2022-11-06T06:11:43.280Z,2.468567
2022-11-06T06:12:52.012Z,2.569275
2022-11-06T06:14:00.851Z,2.710266
2022-11-06T06:15:10.590Z,3.113098
2022-11-06T06:16:18.397Z,3.113098
2022-11-06T06:17:27.085Z,3.01239
2022-11-06T06:18:36.888Z,2.921753
2022-11-06T06:19:45.679Z,2.891541
2022-11-06T06:20:55.502Z,2.951965
2022-11-06T06:22:03.374Z,2.951965
2022-11-06T06:23:11.085Z,2.972107
2022-11-06T06:24:19.902Z,2.951965
2022-11-06T06:25:28.574Z,3.01239
2022-11-06T06:26:37.341Z,3.13324
2022-11-06T06:27:46.991Z,3.052673
2022-11-06T06:28:54.755Z,2.931824
2022-11-06T06:30:04.484Z,2.851257
2022-11-06T06:31:13.218Z,2.800903
2022-11-06T06:32:21.935Z,2.831116
2022-11-06T06:33:31.757Z,3.032532
2022-11-06T06:34:39.498Z,3.072815
2022-11-06T06:35:49.251Z,3.052673
2022-11-06T06:36:58.960Z,2.972107
2022-11-06T06:38:07.707Z,2.901611
2022-11-06T06:39:17.470Z,2.800903
2022-11-06T06:40:26.244Z,2.740479
2022-11-06T06:41:36.060Z,2.680054
2022-11-06T06:42:44.767Z,2.690125
2022-11-06T06:43:54.451Z,2.770691
2022-11-06T06:45:03.184Z,2.891541
2022-11-06T06:46:12.872Z,2.982178
2022-11-06T06:47:21.609Z,3.052673
2022-11-06T06:48:30.337Z,3.193665
2022-11-06T06:49:40.111Z,3.233948
2022-11-06T06:50:47.849Z,3.113098
2022-11-06T06:51:57.548Z,3.002319
2022-11-06T06:53:07.270Z,2.931824
2022-11-06T06:54:15.041Z,2.921753
2022-11-06T06:55:24.729Z,2.982178
2022-11-06T06:56:33.516Z,2.982178
2022-11-06T06:57:42.257Z,2.951965
2022-11-06T06:58:51.948Z,2.972107
2022-11-06T07:00:00.723Z,3.002319
2022-11-06T07:01:10.588Z,3.002319
2022-11-06T07:02:20.378Z,2.982178
2022-11-06T07:03:28.015Z,3.042603
2022-11-06T07:04:37.746Z,3.113098
2022-11-06T07:05:47.563Z,3.13324
2022-11-06T07:06:55.259Z,3.113098
2022-11-06T07:08:05.033Z,3.163452
2022-11-06T07:09:12.747Z,3.193665
2022-11-06T07:10:21.452Z,3.223877
2022-11-06T07:11:31.194Z,3.233948
2022-11-06T07:12:38.902Z,3.284302
2022-11-06T07:13:48.739Z,3.405151
2022-11-06T07:14:59.448Z,3.495789
2022-11-06T07:16:07.140Z,3.616638
2022-11-06T07:17:16.925Z,3.677063
2022-11-06T07:18:25.693Z,3.697205
2022-11-06T07:19:34.424Z,3.838196
2022-11-06T07:20:44.173Z,3.838196
2022-11-06T07:21:51.935Z,3.938904
2022-11-06T07:23:00.766Z,3.959045
2022-11-06T07:24:09.504Z,3.979187
2022-11-06T07:25:18.467Z,3.979187
2022-11-06T07:26:28.225Z,4.039612
2022-11-06T07:27:35.968Z,4.130249
2022-11-06T07:28:44.675Z,4.261169
2022-11-06T07:29:54.425Z,4.351807
2022-11-06T07:31:04.118Z,4.382019
2022-11-06T07:32:13.831Z,4.52301
2022-11-06T07:33:23.569Z,4.553223
2022-11-06T07:34:31.321Z,4.563293
2022-11-06T07:35:41.163Z,4.593506
2022-11-06T07:36:49.971Z,4.563293
2022-11-06T07:37:58.926Z,4.492798
2022-11-06T07:39:08.687Z,4.442444
2022-11-06T07:40:16.515Z,4.452515
2022-11-06T07:41:26.224Z,4.502869
2022-11-06T07:42:40.780Z,4.533081
2022-11-06T07:43:45.730Z,4.583435
2022-11-06T07:44:55.439Z,4.623718
2022-11-06T07:46:03.219Z,4.664001
2022-11-06T07:47:12.951Z,4.684143
2022-11-06T07:48:22.726Z,4.633789
2022-11-06T07:49:30.507Z,4.633789
2022-11-06T07:50:40.445Z,4.734497
2022-11-06T07:51:48.195Z,4.77478
2022-11-06T07:52:57.009Z,4.804993
2022-11-06T07:54:06.758Z,4.885559
2022-11-06T07:55:14.511Z,4.885559
2022-11-06T07:56:23.208Z,4.935913
2022-11-06T07:57:32.988Z,4.966125
2022-11-06T07:58:41.736Z,5.066833
2022-11-06T07:59:50.516Z,5.207825
2022-11-06T08:00:59.297Z,5.429382
2022-11-06T08:02:07.063Z,5.620728
2022-11-06T08:03:16.701Z,5.872498
2022-11-06T08:04:25.431Z,6.043701
2022-11-06T08:05:34.179Z,6.194763
2022-11-06T08:06:43.940Z,6.355896
2022-11-06T08:07:51.660Z,6.597595
2022-11-06T08:09:00.537Z,6.819153
2022-11-06T08:10:10.302Z,6.960144
2022-11-06T08:11:17.089Z,7.03064
2022-11-06T08:12:25.888Z,7.111206
2022-11-06T08:13:34.633Z,7.131348
2022-11-06T08:14:43.389Z,7.000427
2022-11-06T08:15:53.183Z,7.000427
2022-11-06T08:17:00.934Z,7.03064
2022-11-06T08:18:10.988Z,7.101135
2022-11-06T08:19:20.408Z,7.181702
2022-11-06T08:20:29.170Z,7.28241
2022-11-06T08:21:38.880Z,7.403259
2022-11-06T08:22:47.591Z,7.514038
2022-11-06T08:23:56.339Z,7.634888
2022-11-06T08:25:06.032Z,7.896729
2022-11-06T08:26:13.716Z,8.198853
2022-11-06T08:27:23.483Z,8.450623
2022-11-06T08:28:33.500Z,8.641968
2022-11-06T08:29:43.167Z,8.762817
2022-11-06T08:30:52.912Z,8.813171
2022-11-06T08:32:00.724Z,8.954163
2022-11-06T08:33:10.427Z,9.0448
2022-11-06T08:34:20.292Z,9.316711
2022-11-06T08:35:29.912Z,9.638977
2022-11-06T08:36:39.608Z,9.840393
2022-11-06T08:37:49.344Z,9.991455
2022-11-06T08:38:58.024Z,10.041809
2022-11-06T08:40:06.757Z,9.719543
2022-11-06T08:41:15.481Z,9.578552
2022-11-06T08:42:25.200Z,9.538269
2022-11-06T08:43:33.883Z,9.578552
2022-11-06T08:44:43.564Z,9.608765
2022-11-06T08:45:51.273Z,9.729614
2022-11-06T08:47:01.948Z,9.689331
2022-11-06T08:48:11.664Z,9.608765
2022-11-06T08:49:19.456Z,9.367065
2022-11-06T08:50:28.176Z,9.216003
2022-11-06T08:51:37.874Z,9.205933
2022-11-06T08:52:45.608Z,9.276428
2022-11-06T08:53:55.362Z,9.336853
2022-11-06T08:55:04.036Z,9.387207
2022-11-06T08:56:12.735Z,9.336853
2022-11-06T08:57:22.442Z,9.256287
2022-11-06T08:58:30.384Z,9.226074
2022-11-06T08:59:39.177Z,9.185791
2022-11-06T09:00:49.007Z,9.125366
2022-11-06T09:01:56.778Z,9.226074
2022-11-06T09:03:05.638Z,9.256287
2022-11-06T09:04:15.542Z,9.42749
2022-11-06T09:05:23.272Z,9.588623
2022-11-06T09:06:32.980Z,9.840393
2022-11-06T09:07:42.650Z,9.860535
2022-11-06T09:08:52.634Z,9.981384
2022-11-06T09:10:02.200Z,9.890747
2022-11-06T09:11:11.042Z,9.769897
2022-11-06T09:12:19.762Z,9.860535
2022-11-06T09:13:29.453Z,10.05188
2022-11-06T09:14:39.177Z,10.05188
2022-11-06T09:15:48.993Z,10.202942
2022-11-06T09:16:57.689Z,10.404358
2022-11-06T09:18:06.414Z,10.505066
2022-11-06T09:19:16.140Z,10.68634
2022-11-06T09:20:25.940Z,10.80719
2022-11-06T09:21:35.798Z,10.897827
2022-11-06T09:22:45.389Z,11.099243
2022-11-06T09:23:54.073Z,11.290588
2022-11-06T09:25:04.618Z,11.401367
2022-11-06T09:26:13.587Z,11.260376
2022-11-06T09:27:22.309Z,11.149597
2022-11-06T09:28:32.129Z,11.069031
2022-11-06T09:29:39.806Z,11.099243
2022-11-06T09:30:48.558Z,11.290588
2022-11-06T09:31:57.483Z,11.351013
2022-11-06T09:33:07.959Z,11.471863
2022-11-06T09:34:14.796Z,11.522217
2022-11-06T09:35:23.482Z,11.632996
2022-11-06T09:36:32.313Z,11.81427
2022-11-06T09:37:42.126Z,12.015686
2022-11-06T09:38:51.807Z,12.126465
2022-11-06T09:40:05.931Z,11.995544
2022-11-06T09:41:11.271Z,11.864624
2022-11-06T09:42:20.089Z,11.884766
2022-11-06T09:43:58.621Z,11.94519
2022-11-06T09:44:40.574Z,11.874695
2022-11-06T09:45:53.765Z,11.68335
2022-11-06T09:46:58.928Z,11.69342
2022-11-06T09:48:07.617Z,11.773987
2022-11-06T09:49:17.357Z,12.015686
2022-11-06T09:50:26.156Z,12.44873
2022-11-06T09:51:33.964Z,12.670288
2022-11-06T09:52:43.690Z,12.579651
2022-11-06T09:53:53.655Z,12.619934
2022-11-06T09:55:03.336Z,12.7005
2022-11-06T09:56:13.068Z,12.7005
2022-11-06T09:57:21.750Z,12.609863
2022-11-06T09:58:31.439Z,12.7005
2022-11-06T09:59:40.156Z,12.831421
2022-11-06T10:00:48.977Z,12.861633
2022-11-06T10:01:58.757Z,12.901917
2022-11-06T10:03:07.335Z,12.851562
2022-11-06T10:04:16.115Z,12.911987
2022-11-06T10:05:24.813Z,12.9422
2022-11-06T10:06:32.561Z,12.861633
2022-11-06T10:07:42.360Z,12.932129
2022-11-06T10:08:52.099Z,13.042908
2022-11-06T10:10:01.792Z,13.254395
2022-11-06T10:11:11.468Z,13.415527
2022-11-06T10:12:19.213Z,13.536377
2022-11-06T10:13:28.015Z,13.405457
2022-11-06T10:14:36.807Z,13.415527
2022-11-06T10:15:44.493Z,13.486023
2022-11-06T10:16:54.280Z,13.647156
2022-11-06T10:18:02.972Z,13.496094
2022-11-06T10:19:10.655Z,13.486023
2022-11-06T10:20:23.819Z,13.304749
2022-11-06T10:21:29.089Z,13.254395
2022-11-06T10:22:38.777Z,13.042908
2022-11-06T10:23:48.484Z,13.123474
2022-11-06T10:24:56.832Z,13.254395
2022-11-06T10:26:12.737Z,13.455811
2022-11-06T10:27:22.542Z,13.516235
2022-11-06T10:28:32.255Z,13.334961
2022-11-06T10:29:40.957Z,13.284607
2022-11-06T10:30:48.677Z,13.304749
2022-11-06T10:31:58.359Z,13.254395
2022-11-06T10:33:08.121Z,13.183899
2022-11-06T10:34:16.836Z,13.083191
2022-11-06T10:35:26.761Z,13.012695
2022-11-06T10:36:36.484Z,13.183899
2022-11-06T10:37:46.147Z,13.405457
2022-11-06T10:38:53.839Z,13.627014
2022-11-06T10:40:03.590Z,13.959351
2022-11-06T10:41:12.340Z,13.94928
2022-11-06T10:42:22.077Z,13.969421
2022-11-06T10:43:31.763Z,13.093262
2022-11-06T10:44:40.448Z,13.093262
2022-11-06T10:45:49.214Z,12.82135
2022-11-06T10:46:56.921Z,12.932129
2022-11-06T10:48:06.611Z,13.042908
2022-11-06T10:49:16.352Z,13.234253
2022-11-06T10:50:24.047Z,13.385315
2022-11-06T10:51:33.723Z,13.566589
2022-11-06T10:52:42.585Z,13.435669
2022-11-06T10:53:51.249Z,13.345032
2022-11-06T10:55:00.995Z,13.385315
2022-11-06T10:56:11.114Z,12.952271
2022-11-06T10:57:19.457Z,12.489014
2022-11-06T10:58:29.205Z,12.217102
2022-11-06T10:59:36.917Z,12.358093
2022-11-06T11:00:46.697Z,12.489014
2022-11-06T11:01:55.443Z,12.82135
2022-11-06T11:03:05.144Z,13.032837
2022-11-06T11:04:14.854Z,13.163757
2022-11-06T11:05:22.675Z,13.345032
2022-11-06T11:06:31.415Z,13.455811
2022-11-06T11:07:42.143Z,13.516235
2022-11-06T11:08:50.929Z,13.616943
2022-11-06T11:10:00.706Z,13.707581
2022-11-06T11:11:09.403Z,13.385315
2022-11-06T11:12:18.309Z,13.405457
2022-11-06T11:13:28.159Z,13.375244
2022-11-06T11:14:36.085Z,13.415527
2022-11-06T11:15:44.764Z,13.627014
2022-11-06T11:16:54.542Z,13.677368
2022-11-06T11:18:03.510Z,13.566589
2022-11-06T11:19:13.211Z,13.365173
2022-11-06T11:20:22.155Z,12.831421
2022-11-06T11:21:30.896Z,12.650146
2022-11-06T11:22:40.698Z,12.730713
2022-11-06T11:23:48.413Z,12.730713
2022-11-06T11:24:57.094Z,12.640076
2022-11-06T11:26:06.780Z,12.650146
2022-11-06T11:27:14.591Z,12.287598
2022-11-06T11:28:24.310Z,12.307739
2022-11-06T11:29:34.077Z,12.025757
2022-11-06T11:30:42.878Z,12.06604
2022-11-06T11:31:52.494Z,12.358093
2022-11-06T11:33:00.240Z,12.680359
2022-11-06T11:34:09.355Z,12.972412
2022-11-06T11:35:19.055Z,13.274536
2022-11-06T11:36:27.804Z,13.204041
2022-11-06T11:37:36.509Z,13.032837
2022-11-06T11:38:45.523Z,13.224182
2022-11-06T11:39:55.330Z,13.586731
2022-11-06T11:41:05.206Z,13.898926
2022-11-06T11:42:13.208Z,14.120483
2022-11-06T11:43:21.874Z,14.221191
2022-11-06T11:44:31.612Z,14.231262
2022-11-06T11:45:40.290Z,14.321899
2022-11-06T11:46:50.130Z,14.513245
2022-11-06T11:47:59.995Z,14.694519
2022-11-06T11:49:07.790Z,14.765015
2022-11-06T11:50:17.706Z,14.805298
2022-11-06T11:51:26.374Z,14.432678
2022-11-06T11:52:36.218Z,14.412537
2022-11-06T11:53:46.037Z,14.362183
2022-11-06T11:54:53.725Z,14.442749
2022-11-06T11:56:03.613Z,14.281616
2022-11-06T11:57:13.412Z,14.029846
2022-11-06T11:58:22.270Z,14.070129
2022-11-06T11:59:32.006Z,13.989563
2022-11-06T12:00:40.839Z,13.82843
2022-11-06T12:01:49.619Z,13.486023
2022-11-06T12:02:59.386Z,13.284607
2022-11-06T12:04:07.143Z,12.801208
2022-11-06T12:05:16.894Z,12.750854
2022-11-06T12:06:25.830Z,12.791138
2022-11-06T12:07:34.529Z,13.083191
2022-11-06T12:08:45.449Z,13.345032
2022-11-06T12:09:55.546Z,13.536377
2022-11-06T12:11:05.428Z,13.496094
2022-11-06T12:12:15.229Z,13.133545
2022-11-06T12:13:23.975Z,13.365173
2022-11-06T12:14:33.764Z,13.19397
2022-11-06T12:15:42.497Z,13.002625
2022-11-06T12:16:50.206Z,13.002625
2022-11-06T12:17:59.947Z,13.163757
2022-11-06T12:19:08.761Z,13.415527
2022-11-06T12:20:18.524Z,13.566589
2022-11-06T12:21:28.368Z,13.667297
2022-11-06T12:22:36.078Z,13.677368
2022-11-06T12:23:44.964Z,13.778076
2022-11-06T12:24:53.727Z,13.808289
2022-11-06T12:26:03.554Z,13.82843
2022-11-06T12:27:13.289Z,13.667297
2022-11-06T12:28:21.069Z,13.133545
2022-11-06T12:29:30.812Z,13.334961
2022-11-06T12:30:38.644Z,13.375244
2022-11-06T12:31:48.431Z,13.133545
2022-11-06T12:32:57.149Z,12.871704
2022-11-06T12:34:07.019Z,12.801208
2022-11-06T12:35:16.795Z,12.529297
2022-11-06T12:36:26.694Z,12.56958
2022-11-06T12:37:35.462Z,12.670288
2022-11-06T12:38:45.241Z,12.861633
2022-11-06T12:39:52.943Z,13.032837
2022-11-06T12:41:02.758Z,13.405457
2022-11-06T12:42:11.619Z,13.627014
2022-11-06T12:43:19.332Z,13.737793
2022-11-06T12:44:29.038Z,13.586731
2022-11-06T12:45:36.763Z,13.224182
2022-11-06T12:46:45.473Z,12.791138
2022-11-06T12:47:55.443Z,12.972412
2022-11-06T12:49:04.226Z,13.153687
2022-11-06T12:50:13.950Z,13.314819
2022-11-06T12:51:23.722Z,13.234253
2022-11-06T12:52:33.464Z,12.831421
2022-11-06T12:53:43.377Z,12.619934
2022-11-06T12:54:53.048Z,12.428589
2022-11-06T12:56:02.878Z,12.44873
2022-11-06T12:57:12.707Z,12.609863
2022-11-06T12:58:20.850Z,12.599792
2022-11-06T12:59:31.126Z,12.952271
2022-11-06T13:00:40.988Z,13.123474
2022-11-06T13:01:50.319Z,13.133545
2022-11-06T13:03:00.077Z,12.861633
2022-11-06T13:04:09.149Z,12.619934
2022-11-06T13:05:18.377Z,12.781067
2022-11-06T13:06:28.460Z,12.932129
2022-11-06T13:07:36.155Z,13.183899
2022-11-06T13:08:45.954Z,13.183899
2022-11-06T13:09:54.702Z,12.972412
2022-11-06T13:11:02.434Z,12.760925
2022-11-06T13:12:11.144Z,12.801208
2022-11-06T13:13:20.918Z,12.609863
2022-11-06T13:14:28.592Z,12.7005
2022-11-06T13:15:38.528Z,12.932129
2022-11-06T13:16:48.352Z,13.153687
2022-11-06T13:17:57.092Z,13.304749
2022-11-06T13:19:06.844Z,13.486023
2022-11-06T13:20:15.539Z,13.516235
2022-11-06T13:21:24.312Z,13.375244
2022-11-06T13:22:34.074Z,13.415527
2022-11-06T13:23:41.859Z,13.516235
2022-11-06T13:24:51.650Z,13.304749
2022-11-06T13:26:00.318Z,13.052979